createdAt,value
2023-03-07T00:01:05.291Z,5.20
2023-03-07T00:03:32.584Z,5.24
2023-03-07T00:06:07.642Z,5.26
2023-03-07T00:08:35.038Z,5.24
2023-03-07T00:11:07.672Z,5.23
2023-03-07T00:13:36.647Z,5.26
2023-03-07T00:16:09.121Z,5.27
2023-03-07T00:18:36.459Z,5.30
2023-03-07T00:21:10.246Z,5.30
2023-03-07T00:23:40.040Z,5.33
2023-03-07T00:26:18.364Z,5.35
2023-03-07T00:28:51.513Z,5.36
2023-03-07T00:31:19.800Z,5.39
2023-03-07T00:33:46.842Z,5.43
2023-03-07T00:36:20.173Z,5.45
2023-03-07T00:38:47.626Z,5.48
2023-03-07T00:41:27.587Z,5.51
2023-03-07T00:43:55.914Z,5.50
2023-03-07T00:46:25.148Z,5.53
2023-03-07T00:48:52.285Z,5.51
2023-03-07T00:51:21.375Z,5.53
2023-03-07T00:53:48.520Z,5.52
2023-03-07T00:56:24.632Z,5.51
2023-03-07T00:58:52.282Z,5.53
2023-03-07T01:01:24.873Z,5.54
2023-03-07T01:03:56.061Z,5.55
2023-03-07T01:06:32.459Z,5.51
2023-03-07T01:09:07.293Z,5.49
2023-03-07T01:11:35.738Z,5.48
2023-03-07T01:14:05.192Z,5.50
2023-03-07T01:16:35.444Z,5.47
2023-03-07T01:19:06.460Z,5.52
2023-03-07T01:21:40.577Z,5.53
2023-03-07T01:24:12.411Z,5.50
2023-03-07T01:26:39.317Z,5.45
2023-03-07T01:29:07.518Z,5.44
2023-03-07T01:31:35.052Z,5.41
2023-03-07T01:34:02.972Z,5.42
2023-03-07T01:36:33.493Z,5.42
2023-03-07T01:39:07.844Z,5.42
2023-03-07T01:41:38.053Z,5.43
2023-03-07T01:44:19.582Z,5.39
2023-03-07T01:46:54.507Z,5.35
2023-03-07T01:49:33.061Z,5.33
2023-03-07T01:52:02.703Z,5.32
2023-03-07T01:54:33.163Z,5.30
2023-03-07T01:57:03.161Z,5.32
2023-03-07T01:59:38.661Z,5.32
2023-03-07T02:02:11.839Z,5.32
2023-03-07T02:05:06.180Z,5.31
2023-03-07T02:07:40.764Z,5.30
2023-03-07T02:10:09.338Z,5.25
2023-03-07T02:12:36.165Z,5.23
2023-03-07T02:15:04.296Z,5.25
2023-03-07T02:17:32.198Z,5.20
2023-03-07T02:20:24.173Z,5.21
2023-03-07T02:22:51.727Z,5.19
2023-03-07T02:25:42.594Z,5.17
2023-03-07T02:28:13.208Z,5.14
2023-03-07T02:30:56.983Z,5.12
2023-03-07T02:33:25.072Z,5.02
2023-03-07T02:35:58.735Z,4.99
2023-03-07T02:38:26.535Z,4.92
2023-03-07T02:40:55.319Z,4.86
2023-03-07T02:43:23.214Z,4.85
2023-03-07T02:45:50.274Z,4.78
2023-03-07T02:48:17.407Z,4.76
2023-03-07T02:50:44.237Z,4.78
2023-03-07T02:53:11.080Z,4.74
2023-03-07T02:55:37.923Z,4.73
2023-03-07T02:58:04.801Z,4.69
2023-03-07T03:00:31.743Z,4.67
2023-03-07T03:02:58.630Z,4.67
2023-03-07T03:05:25.420Z,4.63
2023-03-07T03:07:52.528Z,4.59
2023-03-07T03:10:19.568Z,4.53
2023-03-07T03:12:46.954Z,4.48
2023-03-07T03:15:13.829Z,4.47
2023-03-07T03:17:42.209Z,4.50
2023-03-07T03:20:12.136Z,4.47
2023-03-07T03:22:40.576Z,4.46
2023-03-07T03:25:13.576Z,4.45
2023-03-07T03:27:41.847Z,4.41
2023-03-07T03:30:13.910Z,4.41
2023-03-07T03:32:41.574Z,4.38
2023-03-07T03:35:09.076Z,4.43
2023-03-07T03:37:35.940Z,4.40
2023-03-07T03:40:04.726Z,4.38
2023-03-07T03:42:31.614Z,4.42
2023-03-07T03:44:58.435Z,4.41
2023-03-07T03:47:25.297Z,4.41
2023-03-07T03:49:52.119Z,4.42
2023-03-07T03:52:19.479Z,4.38
2023-03-07T03:54:46.328Z,4.36
2023-03-07T03:57:17.725Z,4.37
2023-03-07T03:59:45.069Z,4.36
2023-03-07T04:02:11.954Z,4.35
2023-03-07T04:04:39.401Z,4.36
2023-03-07T04:07:06.209Z,4.33
2023-03-07T04:09:33.151Z,4.32
2023-03-07T04:11:59.970Z,4.30
2023-03-07T04:14:26.791Z,4.24
2023-03-07T04:16:53.759Z,4.23
2023-03-07T04:19:22.027Z,4.30
2023-03-07T04:21:49.003Z,4.26
2023-03-07T04:24:15.810Z,4.26
2023-03-07T04:26:42.643Z,4.24
2023-03-07T04:29:09.857Z,4.22
2023-03-07T04:31:36.734Z,4.20
2023-03-07T04:34:03.593Z,4.17
2023-03-07T04:36:30.387Z,4.18
2023-03-07T04:38:57.210Z,4.19
2023-03-07T04:41:28.101Z,4.20
2023-03-07T04:43:55.120Z,4.17
2023-03-07T04:46:22.002Z,4.16
2023-03-07T04:48:48.865Z,4.13
2023-03-07T04:51:15.917Z,4.14
2023-03-07T04:53:43.012Z,4.09
2023-03-07T04:56:10.518Z,4.08
2023-03-07T04:58:37.861Z,4.08
2023-03-07T05:01:05.582Z,4.14
2023-03-07T05:03:34.341Z,4.17
2023-03-07T05:06:08.257Z,4.22
2023-03-07T05:08:35.460Z,4.22
2023-03-07T05:11:02.939Z,4.23
2023-03-07T05:13:30.015Z,4.30
2023-03-07T05:15:58.682Z,4.30
2023-03-07T05:18:26.662Z,4.31
2023-03-07T05:20:53.528Z,4.32
2023-03-07T05:23:21.203Z,4.34
2023-03-07T05:25:48.052Z,4.33
2023-03-07T05:28:16.882Z,4.35
2023-03-07T05:30:45.219Z,4.41
2023-03-07T05:33:12.223Z,4.43
2023-03-07T05:35:39.522Z,4.44
2023-03-07T05:38:06.982Z,4.40
2023-03-07T05:40:33.903Z,4.46
2023-03-07T05:43:00.883Z,4.47
2023-03-07T05:45:27.733Z,4.48
2023-03-07T05:47:54.569Z,4.48
2023-03-07T05:50:22.254Z,4.48
2023-03-07T05:52:49.120Z,4.49
2023-03-07T05:55:16.081Z,4.46
2023-03-07T05:57:42.898Z,4.48
2023-03-07T06:00:12.372Z,4.50
2023-03-07T06:02:39.165Z,4.49
2023-03-07T06:05:06.293Z,4.50
2023-03-07T06:07:33.088Z,4.42
2023-03-07T06:09:59.883Z,4.44
2023-03-07T06:12:26.772Z,4.47
2023-03-07T06:14:53.582Z,4.49
2023-03-07T06:17:20.489Z,4.46
2023-03-07T06:19:47.356Z,4.50
2023-03-07T06:22:14.248Z,4.55
2023-03-07T06:24:41.108Z,4.58
2023-03-07T06:27:07.954Z,4.55
2023-03-07T06:29:34.778Z,4.62
2023-03-07T06:32:01.586Z,4.61
2023-03-07T06:34:28.476Z,4.63
2023-03-07T06:36:55.304Z,4.65
2023-03-07T06:39:22.245Z,4.71
2023-03-07T06:41:51.993Z,4.75
2023-03-07T06:44:19.142Z,4.78
2023-03-07T06:46:46.309Z,4.85
2023-03-07T06:49:13.404Z,4.92
2023-03-07T06:51:40.332Z,4.99
2023-03-07T06:54:07.416Z,4.98
2023-03-07T06:56:35.199Z,4.99
2023-03-07T06:59:02.490Z,5.01
2023-03-07T07:01:29.873Z,5.06
2023-03-07T07:03:57.305Z,5.15
2023-03-07T07:06:24.304Z,5.19
2023-03-07T07:08:55.939Z,5.25
2023-03-07T07:11:24.364Z,5.32
2023-03-07T07:13:51.321Z,5.29
2023-03-07T07:16:18.758Z,5.43
2023-03-07T07:18:46.028Z,5.70
2023-03-07T07:21:12.910Z,5.86
2023-03-07T07:23:40.036Z,6.07
2023-03-07T07:26:06.992Z,6.31
2023-03-07T07:28:33.888Z,6.35
2023-03-07T07:31:00.780Z,6.39
2023-03-07T07:33:27.594Z,6.38
2023-03-07T07:35:54.500Z,6.49
2023-03-07T07:38:21.344Z,6.47
2023-03-07T07:40:48.194Z,6.39
2023-03-07T07:43:16.927Z,6.39
2023-03-07T07:45:44.185Z,6.31
2023-03-07T07:48:11.048Z,6.17
2023-03-07T07:50:37.933Z,6.16
2023-03-07T07:53:04.789Z,6.30
2023-03-07T07:55:31.661Z,6.43
2023-03-07T07:57:58.457Z,6.47
2023-03-07T08:00:25.772Z,6.55
2023-03-07T08:02:52.736Z,6.64
2023-03-07T08:05:21.036Z,6.72
2023-03-07T08:07:48.346Z,6.83
2023-03-07T08:10:16.455Z,6.97
2023-03-07T08:12:52.809Z,7.13
2023-03-07T08:15:23.744Z,7.23
2023-03-07T08:17:51.276Z,7.28
2023-03-07T08:20:22.174Z,7.55
2023-03-07T08:22:53.112Z,7.79
2023-03-07T08:25:23.717Z,8.03
2023-03-07T08:27:54.884Z,8.20
2023-03-07T08:30:28.278Z,7.87
2023-03-07T08:32:56.450Z,7.89
2023-03-07T08:35:25.789Z,7.97
2023-03-07T08:38:02.190Z,8.10
2023-03-07T08:40:30.589Z,8.34
2023-03-07T08:42:59.562Z,8.88
2023-03-07T08:45:26.817Z,9.42
2023-03-07T08:47:55.447Z,9.95
2023-03-07T08:50:26.198Z,10.19
2023-03-07T08:52:53.196Z,10.29
2023-03-07T08:55:20.392Z,10.30
2023-03-07T08:57:47.704Z,10.15
2023-03-07T09:00:15.528Z,10.39
2023-03-07T09:02:42.390Z,11.09
2023-03-07T09:05:09.969Z,11.49
2023-03-07T09:07:36.864Z,11.99
2023-03-07T09:10:05.824Z,12.48
2023-03-07T09:12:34.018Z,12.71
2023-03-07T09:15:00.913Z,13.39
2023-03-07T09:17:27.907Z,13.52
2023-03-07T09:19:56.452Z,13.31
2023-03-07T09:22:23.336Z,13.33
2023-03-07T09:24:50.149Z,13.31
2023-03-07T09:27:16.999Z,13.62
2023-03-07T09:29:43.826Z,14.45
2023-03-07T09:32:13.737Z,15.26
2023-03-07T09:34:40.640Z,16.36
2023-03-07T09:37:07.467Z,17.49
2023-03-07T09:39:34.309Z,18.22
2023-03-07T09:42:25.109Z,18.65
2023-03-07T09:45:15.048Z,17.86
2023-03-07T09:47:50.660Z,17.12
2023-03-07T09:50:40.846Z,16.33
2023-03-07T09:53:37.885Z,14.91
2023-03-07T09:56:27.321Z,13.73
2023-03-07T09:59:41.095Z,12.92
2023-03-07T10:02:36.001Z,12.15
2023-03-07T10:05:08.208Z,11.69
2023-03-07T10:07:35.994Z,11.33
2023-03-07T10:10:20.019Z,11.00
2023-03-07T10:13:25.668Z,10.71
2023-03-07T10:15:56.362Z,10.59
2023-03-07T10:18:48.246Z,10.47
2023-03-07T10:21:47.754Z,10.49
2023-03-07T10:25:08.400Z,10.54
2023-03-07T10:27:35.360Z,10.31
2023-03-07T10:30:15.680Z,10.24
2023-03-07T10:32:54.688Z,10.27
2023-03-07T10:35:24.969Z,10.43
2023-03-07T10:38:13.789Z,10.57
2023-03-07T10:40:48.850Z,10.62
2023-03-07T10:43:33.947Z,10.80
2023-03-07T10:46:28.324Z,11.89
2023-03-07T10:49:18.202Z,12.79
2023-03-07T10:52:17.678Z,12.69
2023-03-07T10:54:44.492Z,12.25
2023-03-07T10:57:17.696Z,11.89
2023-03-07T10:59:50.429Z,11.59
2023-03-07T11:02:46.835Z,11.22
2023-03-07T11:05:36.617Z,11.02
2023-03-07T11:08:35.387Z,10.91
2023-03-07T11:11:04.667Z,10.84
2023-03-07T11:13:31.932Z,10.71
2023-03-07T11:16:20.785Z,10.61
2023-03-07T11:18:48.163Z,10.60
2023-03-07T11:21:35.177Z,10.60
2023-03-07T11:24:26.731Z,10.46
2023-03-07T11:26:56.121Z,10.42
2023-03-07T11:29:23.222Z,10.43
2023-03-07T11:32:05.873Z,10.42
2023-03-07T11:34:59.955Z,10.37
2023-03-07T11:37:45.638Z,10.27
2023-03-07T11:40:37.342Z,10.25
2023-03-07T11:43:47.928Z,10.21
2023-03-07T11:46:48.562Z,10.16
2023-03-07T11:49:43.650Z,10.05
2023-03-07T11:52:37.368Z,10.00
2023-03-07T11:55:19.246Z,9.91
2023-03-07T11:58:23.376Z,9.84
2023-03-07T12:00:59.076Z,9.82
2023-03-07T12:03:46.566Z,9.78
2023-03-07T12:06:49.817Z,9.71
2023-03-07T12:09:37.036Z,9.64
2023-03-07T12:13:17.906Z,9.50
2023-03-07T12:16:24.215Z,9.43
2023-03-07T12:19:11.129Z,9.43
2023-03-07T12:22:09.141Z,9.46
2023-03-07T12:24:43.132Z,9.50
2023-03-07T12:27:25.022Z,9.53
2023-03-07T12:30:23.415Z,9.52
2023-03-07T12:32:51.389Z,9.50
2023-03-07T12:35:21.227Z,9.53
2023-03-07T12:38:03.864Z,9.50
2023-03-07T12:40:42.163Z,9.46
2023-03-07T12:43:20.871Z,9.33
2023-03-07T12:46:11.667Z,9.28
2023-03-07T12:48:53.943Z,9.20
2023-03-07T12:51:40.961Z,9.19
2023-03-07T12:54:21.450Z,9.21
2023-03-07T12:57:38.282Z,9.18
2023-03-07T13:00:09.164Z,9.19
2023-03-07T13:02:53.413Z,9.18
2023-03-07T13:05:22.095Z,9.19
2023-03-07T13:07:50.018Z,9.20
2023-03-07T13:10:24.758Z,9.17
2023-03-07T13:12:52.764Z,9.20
2023-03-07T13:15:19.506Z,9.19
2023-03-07T13:17:46.215Z,9.20
2023-03-07T13:20:15.735Z,9.19
2023-03-07T13:22:42.989Z,9.20
2023-03-07T13:25:51.553Z,9.16
2023-03-07T13:28:42.409Z,9.11
2023-03-07T13:31:15.364Z,9.10
2023-03-07T13:33:42.627Z,9.08
2023-03-07T13:36:38.897Z,9.12
2023-03-07T13:40:01.021Z,9.13
2023-03-07T13:42:48.422Z,9.12
2023-03-07T13:45:40.312Z,9.11
2023-03-07T13:48:33.107Z,9.11
2023-03-07T13:51:02.836Z,9.13
2023-03-07T13:53:57.127Z,9.15
2023-03-07T13:56:29.002Z,9.18
2023-03-07T13:59:09.611Z,9.15
2023-03-07T14:01:40.498Z,9.14
2023-03-07T14:04:40.347Z,9.12
2023-03-07T14:07:32.332Z,9.06
2023-03-07T14:10:27.908Z,9.02
2023-03-07T14:13:09.880Z,8.98
2023-03-07T14:16:20.331Z,8.94
2023-03-07T14:19:15.053Z,8.90
2023-03-07T14:22:17.038Z,8.95
2023-03-07T14:25:28.075Z,8.91
2023-03-07T14:28:01.128Z,8.91
2023-03-07T14:30:32.195Z,8.85
2023-03-07T14:33:00.587Z,8.77
2023-03-07T14:35:45.040Z,8.66
2023-03-07T14:38:22.743Z,8.61
2023-03-07T14:41:22.345Z,8.63
2023-03-07T14:44:14.282Z,8.68
2023-03-07T14:47:22.551Z,8.73
2023-03-07T14:50:18.680Z,8.67
2023-03-07T14:52:47.023Z,8.60
2023-03-07T14:55:23.365Z,8.58
2023-03-07T14:57:53.428Z,8.59
2023-03-07T15:00:20.440Z,8.57
2023-03-07T15:03:07.658Z,8.56
2023-03-07T15:05:37.439Z,8.57
2023-03-07T15:08:17.446Z,8.46
2023-03-07T15:10:48.301Z,8.37
2023-03-07T15:13:45.756Z,8.30
2023-03-07T15:16:19.998Z,8.30
2023-03-07T15:18:58.849Z,8.33
2023-03-07T15:21:32.306Z,8.35
2023-03-07T15:24:06.426Z,8.39
2023-03-07T15:26:33.384Z,8.41
2023-03-07T15:29:05.440Z,8.42
2023-03-07T15:31:54.609Z,8.45
2023-03-07T15:34:39.045Z,8.40
2023-03-07T15:37:22.757Z,8.38
2023-03-07T15:40:24.394Z,8.37
2023-03-07T15:42:56.304Z,8.39
2023-03-07T15:45:31.940Z,8.37
2023-03-07T15:48:16.934Z,8.38
2023-03-07T15:50:43.992Z,8.40
2023-03-07T15:53:27.495Z,8.43
2023-03-07T15:56:05.121Z,8.48
2023-03-07T15:58:36.230Z,8.44
2023-03-07T16:01:23.424Z,8.41
2023-03-07T16:03:57.676Z,8.37
2023-03-07T16:06:46.763Z,8.34
2023-03-07T16:09:17.259Z,8.25
2023-03-07T16:11:46.236Z,8.23
2023-03-07T16:14:32.388Z,8.14
2023-03-07T16:17:16.921Z,8.12
2023-03-07T16:19:43.828Z,8.09
2023-03-07T16:22:19.212Z,8.09
2023-03-07T16:24:46.205Z,8.08
2023-03-07T16:27:25.769Z,8.10
2023-03-07T16:29:53.999Z,8.06
2023-03-07T16:32:22.836Z,8.03
2023-03-07T16:34:50.157Z,8.02
2023-03-07T16:37:17.633Z,7.99
2023-03-07T16:39:44.574Z,7.95
2023-03-07T16:42:20.796Z,7.95
2023-03-07T16:44:49.273Z,7.94
2023-03-07T16:47:18.156Z,7.94
2023-03-07T16:49:46.795Z,7.92
2023-03-07T16:52:14.396Z,7.84
2023-03-07T16:54:41.372Z,7.83
2023-03-07T16:57:15.100Z,7.84
2023-03-07T16:59:47.118Z,7.83
2023-03-07T17:02:28.158Z,7.82
2023-03-07T17:04:55.025Z,7.81
2023-03-07T17:07:23.372Z,7.80
2023-03-07T17:09:50.858Z,7.80
2023-03-07T17:12:23.111Z,7.80
2023-03-07T17:14:50.017Z,7.83
2023-03-07T17:17:27.641Z,7.82
2023-03-07T17:19:54.511Z,7.81
2023-03-07T17:22:21.351Z,7.80
2023-03-07T17:24:48.193Z,7.77
2023-03-07T17:27:15.092Z,7.77
2023-03-07T17:29:49.979Z,7.75
2023-03-07T17:32:17.256Z,7.73
2023-03-07T17:34:44.353Z,7.73
2023-03-07T17:37:12.289Z,7.72
2023-03-07T17:39:40.999Z,7.74
2023-03-07T17:42:08.251Z,7.71
2023-03-07T17:44:35.175Z,7.71
2023-03-07T17:47:02.018Z,7.69
2023-03-07T17:49:37.630Z,7.63
2023-03-07T17:52:06.538Z,7.61
2023-03-07T17:54:34.053Z,7.58
2023-03-07T17:57:02.303Z,7.60
2023-03-07T17:59:32.527Z,7.59
2023-03-07T18:01:59.649Z,7.60
2023-03-07T18:04:28.537Z,7.60
2023-03-07T18:06:55.360Z,7.56
2023-03-07T18:09:23.262Z,7.60
2023-03-07T18:11:50.166Z,7.62
2023-03-07T18:14:17.463Z,7.58
2023-03-07T18:16:44.928Z,7.61
2023-03-07T18:19:24.163Z,7.60
2023-03-07T18:21:53.168Z,7.61
2023-03-07T18:24:26.245Z,7.62
2023-03-07T18:26:54.861Z,7.62
2023-03-07T18:29:23.186Z,7.62
2023-03-07T18:31:50.120Z,7.63
2023-03-07T18:34:16.974Z,7.64
2023-03-07T18:36:44.068Z,7.62
2023-03-07T18:39:11.126Z,7.61
2023-03-07T18:41:38.214Z,7.61
2023-03-07T18:44:05.303Z,7.60
2023-03-07T18:46:32.797Z,7.56
2023-03-07T18:49:01.028Z,7.57
2023-03-07T18:51:28.075Z,7.56
2023-03-07T18:54:00.830Z,7.57
2023-03-07T18:56:28.500Z,7.61
2023-03-07T18:58:59.410Z,7.62
2023-03-07T19:01:30.588Z,7.64
2023-03-07T19:04:01.318Z,7.63
2023-03-07T19:06:42.050Z,7.61
2023-03-07T19:09:19.553Z,7.58
2023-03-07T19:11:47.615Z,7.55
2023-03-07T19:14:14.950Z,7.52
2023-03-07T19:16:41.968Z,7.54
2023-03-07T19:19:08.853Z,7.51
2023-03-07T19:21:35.884Z,7.48
2023-03-07T19:24:04.820Z,7.49
2023-03-07T19:26:31.844Z,7.48
2023-03-07T19:28:58.844Z,7.44
2023-03-07T19:31:29.620Z,7.38
2023-03-07T19:33:57.472Z,7.33
2023-03-07T19:36:29.544Z,7.29
2023-03-07T19:38:59.108Z,7.30
2023-03-07T19:41:28.625Z,7.30
2023-03-07T19:43:57.501Z,7.28
2023-03-07T19:46:24.963Z,7.29
2023-03-07T19:48:52.083Z,7.29
2023-03-07T19:51:25.337Z,7.27
2023-03-07T19:53:54.779Z,7.29
2023-03-07T19:56:29.461Z,7.37
2023-03-07T19:58:59.070Z,7.38
2023-03-07T20:01:27.747Z,7.40
2023-03-07T20:03:55.279Z,7.38
2023-03-07T20:06:26.997Z,7.40
2023-03-07T20:08:55.222Z,7.36
2023-03-07T20:11:28.721Z,7.34
2023-03-07T20:13:58.082Z,7.33
2023-03-07T20:16:29.042Z,7.31
2023-03-07T20:19:02.633Z,7.33
2023-03-07T20:21:30.543Z,7.38
2023-03-07T20:24:00.722Z,7.38
2023-03-07T20:26:37.996Z,7.40
2023-03-07T20:29:06.771Z,7.36
2023-03-07T20:31:35.986Z,7.35
2023-03-07T20:34:03.208Z,7.36
2023-03-07T20:36:35.826Z,7.34
2023-03-07T20:39:07.725Z,7.34
2023-03-07T20:41:35.304Z,7.32
2023-03-07T20:44:05.914Z,7.31
2023-03-07T20:46:33.185Z,7.30
2023-03-07T20:49:01.736Z,7.28
2023-03-07T20:51:32.089Z,7.29
2023-03-07T20:54:04.585Z,7.29
2023-03-07T20:56:34.207Z,7.30
2023-03-07T20:59:01.665Z,7.30
2023-03-07T21:01:31.636Z,7.30
2023-03-07T21:04:08.068Z,7.29
2023-03-07T21:06:36.379Z,7.36
2023-03-07T21:09:07.934Z,7.40
2023-03-07T21:11:40.540Z,7.41
2023-03-07T21:14:08.315Z,7.41
2023-03-07T21:16:35.146Z,7.41
2023-03-07T21:19:05.254Z,7.41
2023-03-07T21:21:33.852Z,7.45
2023-03-07T21:24:00.960Z,7.42
2023-03-07T21:26:31.222Z,7.38
2023-03-07T21:28:59.217Z,7.36
2023-03-07T21:31:28.532Z,7.37
2023-03-07T21:33:59.259Z,7.37
2023-03-07T21:36:27.680Z,7.40
2023-03-07T21:38:55.226Z,7.38
2023-03-07T21:41:24.833Z,7.40
2023-03-07T21:43:53.266Z,7.36
2023-03-07T21:46:20.458Z,7.36
2023-03-07T21:48:48.735Z,7.35
2023-03-07T21:51:15.645Z,7.35
2023-03-07T21:53:42.643Z,7.33
2023-03-07T21:56:17.047Z,7.34
2023-03-07T21:58:48.520Z,7.33
2023-03-07T22:01:21.151Z,7.35
2023-03-07T22:03:48.295Z,7.37
2023-03-07T22:06:16.727Z,7.36
2023-03-07T22:08:43.653Z,7.37
2023-03-07T22:11:12.249Z,7.38
2023-03-07T22:13:40.681Z,7.42
2023-03-07T22:16:21.077Z,7.45
2023-03-07T22:18:55.967Z,7.52
2023-03-07T22:21:25.966Z,7.56
2023-03-07T22:23:57.793Z,7.54
2023-03-07T22:26:25.452Z,7.49
2023-03-07T22:28:53.508Z,7.49
2023-03-07T22:31:20.586Z,7.51
2023-03-07T22:33:47.468Z,7.53
2023-03-07T22:36:14.800Z,7.50
2023-03-07T22:38:42.789Z,7.48
2023-03-07T22:41:17.796Z,7.44
2023-03-07T22:43:44.921Z,7.42
2023-03-07T22:46:12.079Z,7.43
2023-03-07T22:48:39.019Z,7.42
2023-03-07T22:51:11.966Z,7.37
2023-03-07T22:53:38.834Z,7.39
2023-03-07T22:56:17.998Z,7.38
2023-03-07T22:58:45.628Z,7.35
2023-03-07T23:01:27.649Z,7.35
2023-03-07T23:03:56.631Z,7.29
2023-03-07T23:06:26.217Z,7.27
2023-03-07T23:08:54.032Z,7.25
2023-03-07T23:11:23.544Z,7.23
2023-03-07T23:13:50.814Z,7.21
2023-03-07T23:16:21.697Z,7.18
2023-03-07T23:18:50.745Z,7.18
2023-03-07T23:21:20.888Z,7.18
2023-03-07T23:23:48.286Z,7.21
2023-03-07T23:26:26.213Z,7.23
2023-03-07T23:28:53.339Z,7.25
2023-03-07T23:31:30.019Z,7.27
2023-03-07T23:33:59.973Z,7.29
2023-03-07T23:36:29.535Z,7.30
2023-03-07T23:38:58.439Z,7.30
2023-03-07T23:41:25.801Z,7.26
2023-03-07T23:43:57.885Z,7.25
2023-03-07T23:46:25.131Z,7.27
2023-03-07T23:48:53.400Z,7.25
2023-03-07T23:51:21.673Z,7.24
2023-03-07T23:53:48.708Z,7.21
2023-03-07T23:56:16.293Z,7.19
2023-03-07T23:58:47.426Z,7.18
